sensor_id;sensor_type;location;lat;lon;timestamp;pressure;altitude;pressure_sealevel;temperature;humidity
50484;BME280;36409;52.168;20.878;2024-01-25T00:00:51;99406.98;;;5.02;80.97
50484;BME280;36409;52.168;20.878;2024-01-25T00:03:40;99418.23;;;5.01;80.64
50484;BME280;36409;52.168;20.878;2024-01-25T00:06:12;99424.25;;;5.01;80.66
50484;BME280;36409;52.168;20.878;2024-01-25T00:08:57;99425.09;;;5.02;80.60
50484;BME280;36409;52.168;20.878;2024-01-25T00:11:26;99428.54;;;5.04;80.92
50484;BME280;36409;52.168;20.878;2024-01-25T00:13:55;99439.77;;;5.04;80.54
50484;BME280;36409;52.168;20.878;2024-01-25T00:16:24;99437.16;;;5.03;80.99
50484;BME280;36409;52.168;20.878;2024-01-25T00:18:56;99435.44;;;5.02;80.59
50484;BME280;36409;52.168;20.878;2024-01-25T00:21:32;99434.63;;;5.00;80.46
50484;BME280;36409;52.168;20.878;2024-01-25T00:24:11;99422.55;;;4.97;80.45
50484;BME280;36409;52.168;20.878;2024-01-25T00:26:55;99435.52;;;4.94;80.59
50484;BME280;36409;52.168;20.878;2024-01-25T00:29:38;99427.77;;;4.91;80.37
50484;BME280;36409;52.168;20.878;2024-01-25T00:32:08;99429.50;;;4.89;80.42
50484;BME280;36409;52.168;20.878;2024-01-25T00:34:42;99426.92;;;4.86;80.33
50484;BME280;36409;52.168;20.878;2024-01-25T00:37:13;99423.52;;;4.84;80.21
50484;BME280;36409;52.168;20.878;2024-01-25T00:39:43;99420.91;;;4.82;80.43
50484;BME280;36409;52.168;20.878;2024-01-25T00:42:21;99427.81;;;4.80;80.68
50484;BME280;36409;52.168;20.878;2024-01-25T00:44:58;99419.21;;;4.79;80.75
50484;BME280;36409;52.168;20.878;2024-01-25T00:47:28;99414.89;;;4.80;80.62
50484;BME280;36409;52.168;20.878;2024-01-25T00:50:01;99420.06;;;4.80;80.34
50484;BME280;36409;52.168;20.878;2024-01-25T00:52:31;99426.97;;;4.79;80.51
50484;BME280;36409;52.168;20.878;2024-01-25T00:55:08;99421.80;;;4.79;80.31
50484;BME280;36409;52.168;20.878;2024-01-25T00:57:41;99425.23;;;4.80;80.33
50484;BME280;36409;52.168;20.878;2024-01-25T01:00:15;99426.11;;;4.81;80.68
50484;BME280;36409;52.168;20.878;2024-01-25T01:02:46;99426.09;;;4.82;80.68
50484;BME280;36409;52.168;20.878;2024-01-25T01:08:03;99426.96;;;4.83;80.40
50484;BME280;36409;52.168;20.878;2024-01-25T01:10:35;99429.55;;;4.83;80.76
50484;BME280;36409;52.168;20.878;2024-01-25T01:13:07;99432.13;;;4.83;80.58
50484;BME280;36409;52.168;20.878;2024-01-25T01:15:36;99426.09;;;4.84;81.00
50484;BME280;36409;52.168;20.878;2024-01-25T01:18:08;99422.64;;;4.83;80.78
50484;BME280;36409;52.168;20.878;2024-01-25T01:20:43;99418.33;;;4.82;80.92
50484;BME280;36409;52.168;20.878;2024-01-25T01:23:12;99426.09;;;4.84;80.90
50484;BME280;36409;52.168;20.878;2024-01-25T01:25:46;99418.34;;;4.84;80.83
50484;BME280;36409;52.168;20.878;2024-01-25T01:28:17;99423.52;;;4.84;80.78
50484;BME280;36409;52.168;20.878;2024-01-25T01:30:47;99428.67;;;4.82;80.61
50484;BME280;36409;52.168;20.878;2024-01-25T01:33:20;99408.85;;;4.81;80.60
50484;BME280;36409;52.168;20.878;2024-01-25T01:35:52;99426.11;;;4.81;80.76
50484;BME280;36409;52.168;20.878;2024-01-25T01:38:21;99432.14;;;4.79;80.67
50484;BME280;36409;52.168;20.878;2024-01-25T01:40:55;99426.98;;;4.78;80.53
50484;BME280;36409;52.168;20.878;2024-01-25T01:43:37;99420.94;;;4.77;80.83
50484;BME280;36409;52.168;20.878;2024-01-25T01:46:18;99440.78;;;4.77;80.23
50484;BME280;36409;52.168;20.878;2024-01-25T01:48:51;99433.02;;;4.75;80.65
50484;BME280;36409;52.168;20.878;2024-01-25T01:51:25;99428.70;;;4.74;80.54
50484;BME280;36409;52.168;20.878;2024-01-25T01:54:05;99432.16;;;4.73;80.67
50484;BME280;36409;52.168;20.878;2024-01-25T01:56:39;99418.39;;;4.73;80.51
50484;BME280;36409;52.168;20.878;2024-01-25T01:59:09;99424.42;;;4.72;80.68
50484;BME280;36409;52.168;20.878;2024-01-25T02:01:44;99419.25;;;4.72;80.66
50484;BME280;36409;52.168;20.878;2024-01-25T02:04:15;99420.98;;;4.71;80.35
50484;BME280;36409;52.168;20.878;2024-01-25T02:06:44;99417.53;;;4.71;80.76
50484;BME280;36409;52.168;20.878;2024-01-25T02:09:17;99411.49;;;4.72;80.61
50484;BME280;36409;52.168;20.878;2024-01-25T02:11:46;99406.30;;;4.73;80.91
50484;BME280;36409;52.168;20.878;2024-01-25T02:14:16;99408.06;;;4.71;80.19
50484;BME280;36409;52.168;20.878;2024-01-25T02:16:49;99417.53;;;4.71;80.82
50484;BME280;36409;52.168;20.878;2024-01-25T02:19:21;99420.12;;;4.71;80.57
50484;BME280;36409;52.168;20.878;2024-01-25T02:21:53;99415.82;;;4.71;80.51
50484;BME280;36409;52.168;20.878;2024-01-25T02:24:42;99411.50;;;4.69;80.52
50484;BME280;36409;52.168;20.878;2024-01-25T02:27:17;99423.60;;;4.67;80.47
50484;BME280;36409;52.168;20.878;2024-01-25T02:29:47;99423.59;;;4.65;80.57
50484;BME280;36409;52.168;20.878;2024-01-25T02:32:15;99418.42;;;4.62;80.38
50484;BME280;36409;52.168;20.878;2024-01-25T02:34:45;99422.77;;;4.60;80.25
50484;BME280;36409;52.168;20.878;2024-01-25T02:37:15;99420.19;;;4.57;80.11
50484;BME280;36409;52.168;20.878;2024-01-25T02:39:50;99427.09;;;4.55;80.15
50484;BME280;36409;52.168;20.878;2024-01-25T02:42:23;99434.84;;;4.52;80.73
50484;BME280;36409;52.168;20.878;2024-01-25T02:44:54;99436.56;;;4.53;80.38
50484;BME280;36409;52.168;20.878;2024-01-25T02:47:23;99446.05;;;4.51;80.63
50484;BME280;36409;52.168;20.878;2024-01-25T02:49:54;99449.52;;;4.48;80.42
50484;BME280;36409;52.168;20.878;2024-01-25T02:52:26;99447.81;;;4.45;80.24
50484;BME280;36409;52.168;20.878;2024-01-25T02:54:55;99443.50;;;4.44;80.42
50484;BME280;36409;52.168;20.878;2024-01-25T02:57:28;99446.95;;;4.43;80.55
50484;BME280;36409;52.168;20.878;2024-01-25T03:00:00;99453.00;;;4.41;80.48
50484;BME280;36409;52.168;20.878;2024-01-25T03:02:29;99451.27;;;4.40;80.76
50484;BME280;36409;52.168;20.878;2024-01-25T03:05:08;99449.57;;;4.37;80.57
50484;BME280;36409;52.168;20.878;2024-01-25T03:07:37;99450.42;;;4.35;80.46
50484;BME280;36409;52.168;20.878;2024-01-25T03:10:07;99448.71;;;4.32;80.71
50484;BME280;36409;52.168;20.878;2024-01-25T03:12:41;99455.60;;;4.30;80.26
50484;BME280;36409;52.168;20.878;2024-01-25T03:15:14;99454.76;;;4.26;80.75
50484;BME280;36409;52.168;20.878;2024-01-25T03:17:44;99457.36;;;4.25;80.51
50484;BME280;36409;52.168;20.878;2024-01-25T03:20:15;99459.09;;;4.21;80.72
50484;BME280;36409;52.168;20.878;2024-01-25T03:22:45;99457.38;;;4.20;80.52
50484;BME280;36409;52.168;20.878;2024-01-25T03:25:15;99457.38;;;4.17;80.16
50484;BME280;36409;52.168;20.878;2024-01-25T03:27:48;99466.84;;;4.15;80.74
50484;BME280;36409;52.168;20.878;2024-01-25T03:30:29;99465.14;;;4.12;80.99
50484;BME280;36409;52.168;20.878;2024-01-25T03:33:00;99469.42;;;4.12;80.19
50484;BME280;36409;52.168;20.878;2024-01-25T03:35:31;99468.59;;;4.10;80.76
50484;BME280;36409;52.168;20.878;2024-01-25T03:38:03;99459.98;;;4.08;80.39
50484;BME280;36409;52.168;20.878;2024-01-25T03:40:33;99455.68;;;4.07;80.40
50484;BME280;36409;52.168;20.878;2024-01-25T03:43:04;99456.53;;;4.06;80.42
50484;BME280;36409;52.168;20.878;2024-01-25T03:45:48;99462.56;;;4.05;80.38
50484;BME280;36409;52.168;20.878;2024-01-25T03:48:21;99458.27;;;4.02;80.91
50484;BME280;36409;52.168;20.878;2024-01-25T03:50:59;99457.39;;;4.01;80.94
50484;BME280;36409;52.168;20.878;2024-01-25T03:53:31;99454.83;;;4.00;80.52
50484;BME280;36409;52.168;20.878;2024-01-25T03:56:03;99453.97;;;4.01;80.81
50484;BME280;36409;52.168;20.878;2024-01-25T03:58:35;99458.25;;;4.00;80.88
50484;BME280;36409;52.168;20.878;2024-01-25T04:01:07;99445.34;;;4.00;81.38
50484;BME280;36409;52.168;20.878;2024-01-25T04:03:38;99457.41;;;4.00;81.11
50484;BME280;36409;52.168;20.878;2024-01-25T04:06:10;99452.26;;;3.98;80.76
50484;BME280;36409;52.168;20.878;2024-01-25T04:08:39;99464.30;;;3.98;81.13
50484;BME280;36409;52.168;20.878;2024-01-25T04:11:08;99454.83;;;3.97;81.07
50484;BME280;36409;52.168;20.878;2024-01-25T04:13:39;99449.67;;;3.95;81.11
50484;BME280;36409;52.168;20.878;2024-01-25T04:16:09;99449.69;;;3.94;80.33
50484;BME280;36409;52.168;20.878;2024-01-25T04:18:42;99451.39;;;3.93;80.53
50484;BME280;36409;52.168;20.878;2024-01-25T04:21:16;99472.92;;;3.91;80.63
50484;BME280;36409;52.168;20.878;2024-01-25T04:23:44;99477.21;;;3.90;81.09
50484;BME280;36409;52.168;20.878;2024-01-25T04:26:15;99478.07;;;3.89;81.12
50484;BME280;36409;52.168;20.878;2024-01-25T04:28:44;99466.89;;;3.89;81.34
50484;BME280;36409;52.168;20.878;2024-01-25T04:31:24;99473.78;;;3.86;80.90
50484;BME280;36409;52.168;20.878;2024-01-25T04:33:55;99476.36;;;3.86;81.01
50484;BME280;36409;52.168;20.878;2024-01-25T04:36:27;99481.52;;;3.86;80.83
50484;BME280;36409;52.168;20.878;2024-01-25T04:38:56;99480.66;;;3.84;80.83
50484;BME280;36409;52.168;20.878;2024-01-25T04:41:25;99481.53;;;3.85;80.86
50484;BME280;36409;52.168;20.878;2024-01-25T04:44:10;99492.72;;;3.84;81.27
50484;BME280;36409;52.168;20.878;2024-01-25T04:49:58;99486.68;;;3.83;81.23
50484;BME280;36409;52.168;20.878;2024-01-25T04:52:28;99488.41;;;3.84;80.78
50484;BME280;36409;52.168;20.878;2024-01-25T04:54:57;99483.23;;;3.84;81.48
50484;BME280;36409;52.168;20.878;2024-01-25T04:57:31;99488.41;;;3.84;80.82
50484;BME280;36409;52.168;20.878;2024-01-25T05:00:03;99481.53;;;3.85;81.58
50484;BME280;36409;52.168;20.878;2024-01-25T05:02:33;99492.72;;;3.84;81.41
50484;BME280;36409;52.168;20.878;2024-01-25T05:05:05;99498.73;;;3.84;81.09
50484;BME280;36409;52.168;20.878;2024-01-25T05:07:37;99495.29;;;3.85;80.91
50484;BME280;36409;52.168;20.878;2024-01-25T05:10:09;99494.42;;;3.83;80.98
50484;BME280;36409;52.168;20.878;2024-01-25T05:12:41;99490.98;;;3.84;81.18
50484;BME280;36409;52.168;20.878;2024-01-25T05:15:11;99499.61;;;3.85;81.40
50484;BME280;36409;52.168;20.878;2024-01-25T05:17:40;99491.84;;;3.83;81.32
50484;BME280;36409;52.168;20.878;2024-01-25T05:20:15;99497.00;;;3.83;81.24
50484;BME280;36409;52.168;20.878;2024-01-25T05:22:48;99485.82;;;3.84;81.71
50484;BME280;36409;52.168;20.878;2024-01-25T05:25:18;99491.00;;;3.86;81.11
50484;BME280;36409;52.168;20.878;2024-01-25T05:27:59;99491.84;;;3.86;81.07
50484;BME280;36409;52.168;20.878;2024-01-25T05:30:32;99497.03;;;3.88;81.11
50484;BME280;36409;52.168;20.878;2024-01-25T05:33:05;99484.11;;;3.90;81.63
50484;BME280;36409;52.168;20.878;2024-01-25T05:35:40;99492.70;;;3.90;81.35
50484;BME280;36409;52.168;20.878;2024-01-25T05:38:10;99488.39;;;3.89;81.50
50484;BME280;36409;52.168;20.878;2024-01-25T05:40:40;99491.86;;;3.90;80.90
50484;BME280;36409;52.168;20.878;2024-01-25T05:43:10;99500.45;;;3.90;81.21
50484;BME280;36409;52.168;20.878;2024-01-25T05:45:39;99494.42;;;3.91;81.25
50484;BME280;36409;52.168;20.878;2024-01-25T05:48:18;99499.61;;;3.93;81.74
50484;BME280;36409;52.168;20.878;2024-01-25T05:50:52;99500.45;;;3.93;81.47
50484;BME280;36409;52.168;20.878;2024-01-25T05:53:38;99508.19;;;3.95;80.93
50484;BME280;36409;52.168;20.878;2024-01-25T05:56:09;99517.66;;;3.96;81.66
50484;BME280;36409;52.168;20.878;2024-01-25T05:58:42;99509.92;;;3.94;81.07
50484;BME280;36409;52.168;20.878;2024-01-25T06:01:25;99515.08;;;3.96;81.79
50484;BME280;36409;52.168;20.878;2024-01-25T06:03:59;99528.87;;;3.96;81.73
50484;BME280;36409;52.168;20.878;2024-01-25T06:06:34;99521.11;;;3.98;80.90
50484;BME280;36409;52.168;20.878;2024-01-25T06:09:04;99519.39;;;4.00;81.05
50484;BME280;36409;52.168;20.878;2024-01-25T06:11:51;99517.66;;;3.99;81.19
50484;BME280;36409;52.168;20.878;2024-01-25T06:14:22;99527.14;;;4.00;81.46
50484;BME280;36409;52.168;20.878;2024-01-25T06:16:56;99530.56;;;4.00;80.94
50484;BME280;36409;52.168;20.878;2024-01-25T06:19:25;99530.56;;;4.00;81.66
50484;BME280;36409;52.168;20.878;2024-01-25T06:21:59;99528.86;;;4.01;81.42
50484;BME280;36409;52.168;20.878;2024-01-25T06:24:28;99532.29;;;4.01;81.38
50484;BME280;36409;52.168;20.878;2024-01-25T06:26:59;99530.59;;;4.02;81.38
50484;BME280;36409;52.168;20.878;2024-01-25T06:29:36;99534.02;;;4.01;81.61
50484;BME280;36409;52.168;20.878;2024-01-25T06:32:07;99534.88;;;4.00;81.33
50484;BME280;36409;52.168;20.878;2024-01-25T06:34:42;99532.30;;;4.00;81.27
50484;BME280;36409;52.168;20.878;2024-01-25T06:37:11;99538.31;;;4.00;80.83
50484;BME280;36409;52.168;20.878;2024-01-25T06:39:45;99540.03;;;4.01;81.16
50484;BME280;36409;52.168;20.878;2024-01-25T06:42:21;99538.33;;;4.02;81.58
50484;BME280;36409;52.168;20.878;2024-01-25T06:44:52;99539.20;;;4.04;81.66
50484;BME280;36409;52.168;20.878;2024-01-25T06:47:22;99544.34;;;4.06;81.59
50484;BME280;36409;52.168;20.878;2024-01-25T06:49:52;99534.86;;;4.06;81.27
50484;BME280;36409;52.168;20.878;2024-01-25T06:52:23;99539.20;;;4.04;81.31
50484;BME280;36409;52.168;20.878;2024-01-25T06:54:57;99534.02;;;4.02;81.40
50484;BME280;36409;52.168;20.878;2024-01-25T06:57:32;99543.48;;;4.00;81.42
50484;BME280;36409;52.168;20.878;2024-01-25T07:00:04;99552.96;;;4.00;80.87
50484;BME280;36409;52.168;20.878;2024-01-25T07:02:34;99553.81;;;3.99;80.94
50484;BME280;36409;52.168;20.878;2024-01-25T07:05:04;99555.55;;;3.98;81.30
50484;BME280;36409;52.168;20.878;2024-01-25T07:07:33;99565.86;;;3.97;81.31
50484;BME280;36409;52.168;20.878;2024-01-25T07:10:05;99559.84;;;3.93;81.00
50484;BME280;36409;52.168;20.878;2024-01-25T07:12:38;99564.14;;;3.91;80.73
50484;BME280;36409;52.168;20.878;2024-01-25T07:15:08;99565.86;;;3.89;80.83
50484;BME280;36409;52.168;20.878;2024-01-25T07:17:37;99564.16;;;3.88;80.79
50484;BME280;36409;52.168;20.878;2024-01-25T07:20:11;99559.86;;;3.87;80.71
50484;BME280;36409;52.168;20.878;2024-01-25T07:22:41;99558.98;;;3.86;81.32
50484;BME280;36409;52.168;20.878;2024-01-25T07:25:10;99573.61;;;3.84;80.94
50484;BME280;36409;52.168;20.878;2024-01-25T07:27:39;99571.89;;;3.82;81.33
50484;BME280;36409;52.168;20.878;2024-01-25T07:30:11;99577.05;;;3.82;81.39
50484;BME280;36409;52.168;20.878;2024-01-25T07:32:40;99583.93;;;3.80;81.46
50484;BME280;36409;52.168;20.878;2024-01-25T07:35:10;99583.93;;;3.80;81.45
50484;BME280;36409;52.168;20.878;2024-01-25T07:37:45;99588.23;;;3.81;81.63
50484;BME280;36409;52.168;20.878;2024-01-25T07:40:18;99592.53;;;3.79;81.02
50484;BME280;36409;52.168;20.878;2024-01-25T07:42:48;99580.50;;;3.79;80.97
50484;BME280;36409;52.168;20.878;2024-01-25T07:45:17;99577.92;;;3.79;81.23
50484;BME280;36409;52.168;20.878;2024-01-25T07:47:50;99586.52;;;3.80;80.97
50484;BME280;36409;52.168;20.878;2024-01-25T07:50:34;99583.95;;;3.81;81.86
50484;BME280;36409;52.168;20.878;2024-01-25T07:53:05;99579.64;;;3.82;81.14
50484;BME280;36409;52.168;20.878;2024-01-25T07:55:35;99589.95;;;3.83;81.53
50484;BME280;36409;52.168;20.878;2024-01-25T07:58:08;99589.95;;;3.83;81.60
50484;BME280;36409;52.168;20.878;2024-01-25T08:00:37;99587.39;;;3.85;81.49
50484;BME280;36409;52.168;20.878;2024-01-25T08:03:13;99581.37;;;3.86;81.60
50484;BME280;36409;52.168;20.878;2024-01-25T08:05:51;99591.70;;;3.86;82.04
50484;BME280;36409;52.168;20.878;2024-01-25T08:08:20;99589.97;;;3.86;81.56
50484;BME280;36409;52.168;20.878;2024-01-25T08:10:49;99608.06;;;3.88;81.48
50484;BME280;36409;52.168;20.878;2024-01-25T08:13:19;99600.31;;;3.88;81.68
50484;BME280;36409;52.168;20.878;2024-01-25T08:15:51;99596.00;;;3.89;81.95
50484;BME280;36409;52.168;20.878;2024-01-25T08:18:21;99596.85;;;3.88;81.31
50484;BME280;36409;52.168;20.878;2024-01-25T08:20:51;99589.98;;;3.88;81.88
50484;BME280;36409;52.168;20.878;2024-01-25T08:23:23;99598.59;;;3.87;81.72
50484;BME280;36409;52.168;20.878;2024-01-25T08:25:52;99605.45;;;3.86;81.26
50484;BME280;36409;52.168;20.878;2024-01-25T08:28:22;99602.02;;;3.88;81.26
50484;BME280;36409;52.168;20.878;2024-01-25T08:30:52;99603.74;;;3.89;82.00
50484;BME280;36409;52.168;20.878;2024-01-25T08:33:23;99609.78;;;3.91;81.40
50484;BME280;36409;52.168;20.878;2024-01-25T08:35:53;99611.48;;;3.95;81.44
50484;BME280;36409;52.168;20.878;2024-01-25T08:38:25;99602.88;;;4.00;82.07
50484;BME280;36409;52.168;20.878;2024-01-25T08:40:58;99607.18;;;4.06;81.66
50484;BME280;36409;52.168;20.878;2024-01-25T08:43:26;99612.37;;;4.08;81.45
50484;BME280;36409;52.168;20.878;2024-01-25T08:45:57;99614.94;;;4.09;81.83
50484;BME280;36409;52.168;20.878;2024-01-25T08:51:16;99617.52;;;4.14;81.66
50484;BME280;36409;52.168;20.878;2024-01-25T08:53:45;99621.85;;;4.16;81.68
50484;BME280;36409;52.168;20.878;2024-01-25T08:56:24;99626.13;;;4.17;81.43
50484;BME280;36409;52.168;20.878;2024-01-25T08:58:53;99613.21;;;4.17;81.92
50484;BME280;36409;52.168;20.878;2024-01-25T09:01:24;99635.60;;;4.18;81.66
50484;BME280;36409;52.168;20.878;2024-01-25T09:03:53;99638.20;;;4.17;81.82
50484;BME280;36409;52.168;20.878;2024-01-25T09:06:28;99633.88;;;4.17;81.69
50484;BME280;36409;52.168;20.878;2024-01-25T09:08:58;99641.63;;;4.17;81.63
50484;BME280;36409;52.168;20.878;2024-01-25T09:11:28;99650.24;;;4.20;81.37
50484;BME280;36409;52.168;20.878;2024-01-25T09:14:02;99660.59;;;4.18;81.62
50484;BME280;36409;52.168;20.878;2024-01-25T09:19:17;99676.08;;;4.20;81.92
50484;BME280;36409;52.168;20.878;2024-01-25T09:21:46;99685.56;;;4.19;81.67
50484;BME280;36409;52.168;20.878;2024-01-25T09:24:15;99697.61;;;4.17;82.29
50484;BME280;36409;52.168;20.878;2024-01-25T09:26:48;99689.85;;;4.18;81.89
50484;BME280;36409;52.168;20.878;2024-01-25T09:29:18;99692.45;;;4.20;81.88
50484;BME280;36409;52.168;20.878;2024-01-25T09:31:49;99690.73;;;4.19;82.20
50484;BME280;36409;52.168;20.878;2024-01-25T09:34:24;99686.44;;;4.21;81.54
50484;BME280;36409;52.168;20.878;2024-01-25T09:36:53;99697.61;;;4.23;81.74
50484;BME280;36409;52.168;20.878;2024-01-25T09:39:25;99701.06;;;4.24;82.41
50484;BME280;36409;52.168;20.878;2024-01-25T09:41:56;99702.80;;;4.25;82.35
50484;BME280;36409;52.168;20.878;2024-01-25T09:44:26;99701.94;;;4.26;81.84
50484;BME280;36409;52.168;20.878;2024-01-25T09:46:56;99709.67;;;4.27;82.37
50484;BME280;36409;52.168;20.878;2024-01-25T09:49:28;99708.81;;;4.30;82.05
50484;BME280;36409;52.168;20.878;2024-01-25T09:52:02;99727.78;;;4.35;82.31
50484;BME280;36409;52.168;20.878;2024-01-25T09:54:34;99720.89;;;4.37;82.30
50484;BME280;36409;52.168;20.878;2024-01-25T09:57:14;99728.63;;;4.40;82.18
50484;BME280;36409;52.168;20.878;2024-01-25T09:59:45;99732.95;;;4.40;82.40
50484;BME280;36409;52.168;20.878;2024-01-25T10:02:16;99726.05;;;4.43;82.22
50484;BME280;36409;52.168;20.878;2024-01-25T10:04:50;99731.23;;;4.46;82.38
50484;BME280;36409;52.168;20.878;2024-01-25T10:07:41;99724.33;;;4.47;82.43
50484;BME280;36409;52.168;20.878;2024-01-25T10:10:11;99730.38;;;4.47;82.19
50484;BME280;36409;52.168;20.878;2024-01-25T10:12:43;99743.30;;;4.47;82.18
50484;BME280;36409;52.168;20.878;2024-01-25T10:15:17;99741.57;;;4.46;82.24
50484;BME280;36409;52.168;20.878;2024-01-25T10:17:47;99746.72;;;4.45;82.04
50484;BME280;36409;52.168;20.878;2024-01-25T10:20:43;99751.91;;;4.42;82.09
50484;BME280;36409;52.168;20.878;2024-01-25T10:23:14;99757.05;;;4.40;82.21
50484;BME280;36409;52.168;20.878;2024-01-25T10:25:46;99758.80;;;4.40;82.18
50484;BME280;36409;52.168;20.878;2024-01-25T10:28:18;99763.97;;;4.43;82.08
50484;BME280;36409;52.168;20.878;2024-01-25T10:30:47;99764.83;;;4.46;82.53
50484;BME280;36409;52.168;20.878;2024-01-25T10:33:17;99765.70;;;4.48;82.70
50484;BME280;36409;52.168;20.878;2024-01-25T10:35:47;99763.97;;;4.49;82.14
50484;BME280;36409;52.168;20.878;2024-01-25T10:38:19;99763.11;;;4.50;82.29
50484;BME280;36409;52.168;20.878;2024-01-25T10:41:04;99759.66;;;4.53;82.44
50484;BME280;36409;52.168;20.878;2024-01-25T10:43:36;99770.01;;;4.56;82.11
50484;BME280;36409;52.168;20.878;2024-01-25T10:46:06;99766.56;;;4.57;82.70
50484;BME280;36409;52.168;20.878;2024-01-25T10:48:37;99776.05;;;4.58;82.64
50484;BME280;36409;52.168;20.878;2024-01-25T10:51:07;99778.62;;;4.59;82.22
50484;BME280;36409;52.168;20.878;2024-01-25T10:53:44;99777.77;;;4.60;82.33
50484;BME280;36409;52.168;20.878;2024-01-25T10:56:19;99779.50;;;4.60;82.41
50484;BME280;36409;52.168;20.878;2024-01-25T10:58:52;99775.19;;;4.63;82.33
50484;BME280;36409;52.168;20.878;2024-01-25T11:01:23;99776.05;;;4.67;82.54
50484;BME280;36409;52.168;20.878;2024-01-25T11:03:53;99778.62;;;4.69;82.29
50484;BME280;36409;52.168;20.878;2024-01-25T11:06:26;99779.50;;;4.69;82.46
50484;BME280;36409;52.168;20.878;2024-01-25T11:09:05;99779.50;;;4.69;82.00
50484;BME280;36409;52.168;20.878;2024-01-25T11:11:36;99788.97;;;4.69;82.36
50484;BME280;36409;52.168;20.878;2024-01-25T11:14:12;99781.23;;;4.75;82.24
50484;BME280;36409;52.168;20.878;2024-01-25T11:16:44;99788.13;;;4.81;82.30
50484;BME280;36409;52.168;20.878;2024-01-25T11:19:22;99793.30;;;4.84;82.84
50484;BME280;36409;52.168;20.878;2024-01-25T11:21:53;99787.25;;;4.83;82.42
50484;BME280;36409;52.168;20.878;2024-01-25T11:24:23;99795.89;;;4.84;82.37
50484;BME280;36409;52.168;20.878;2024-01-25T11:26:55;99789.84;;;4.83;82.49
50484;BME280;36409;52.168;20.878;2024-01-25T11:29:26;99799.31;;;4.81;82.32
50484;BME280;36409;52.168;20.878;2024-01-25T11:31:55;99808.81;;;4.81;82.39
50484;BME280;36409;52.168;20.878;2024-01-25T11:34:24;99815.70;;;4.78;82.52
50484;BME280;36409;52.168;20.878;2024-01-25T11:36:54;99817.41;;;4.76;82.37
50484;BME280;36409;52.168;20.878;2024-01-25T11:39:28;99815.70;;;4.74;82.69
50484;BME280;36409;52.168;20.878;2024-01-25T11:41:57;99818.27;;;4.71;82.78
50484;BME280;36409;52.168;20.878;2024-01-25T11:44:28;99820.84;;;4.68;82.57
50484;BME280;36409;52.168;20.878;2024-01-25T11:46:58;99814.84;;;4.66;82.40
50484;BME280;36409;52.168;20.878;2024-01-25T11:49:29;99834.65;;;4.63;82.50
50484;BME280;36409;52.168;20.878;2024-01-25T11:52:02;99824.28;;;4.62;82.46
50484;BME280;36409;52.168;20.878;2024-01-25T11:54:32;99837.22;;;4.60;82.62
50484;BME280;36409;52.168;20.878;2024-01-25T11:57:02;99839.81;;;4.59;82.20
50484;BME280;36409;52.168;20.878;2024-01-25T11:59:32;99850.13;;;4.57;82.70
50484;BME280;36409;52.168;20.878;2024-01-25T12:02:02;99846.70;;;4.55;82.81
50484;BME280;36409;52.168;20.878;2024-01-25T12:04:32;99849.27;;;4.54;82.76
50484;BME280;36409;52.168;20.878;2024-01-25T12:07:06;99859.63;;;4.55;82.80
50484;BME280;36409;52.168;20.878;2024-01-25T12:09:36;99857.03;;;4.57;83.01
50484;BME280;36409;52.168;20.878;2024-01-25T12:12:08;99857.05;;;4.60;82.74
50484;BME280;36409;52.168;20.878;2024-01-25T12:14:37;99859.64;;;4.60;82.11
50484;BME280;36409;52.168;20.878;2024-01-25T12:17:06;99860.48;;;4.60;82.43
50484;BME280;36409;52.168;20.878;2024-01-25T12:19:36;99864.80;;;4.61;82.47
50484;BME280;36409;52.168;20.878;2024-01-25T12:22:07;99868.26;;;4.63;82.77
50484;BME280;36409;52.168;20.878;2024-01-25T12:24:36;99873.41;;;4.62;82.54
50484;BME280;36409;52.168;20.878;2024-01-25T12:27:10;99876.02;;;4.63;82.53
50484;BME280;36409;52.168;20.878;2024-01-25T12:29:39;99876.88;;;4.62;82.72
50484;BME280;36409;52.168;20.878;2024-01-25T12:32:08;99882.05;;;4.61;82.37
50484;BME280;36409;52.168;20.878;2024-01-25T12:34:37;99880.30;;;4.58;82.44
50484;BME280;36409;52.168;20.878;2024-01-25T12:37:09;99894.95;;;4.58;82.40
50484;BME280;36409;52.168;20.878;2024-01-25T12:39:40;99905.30;;;4.58;81.95
50484;BME280;36409;52.168;20.878;2024-01-25T12:42:09;99905.28;;;4.53;81.92
50484;BME280;36409;52.168;20.878;2024-01-25T12:44:39;99934.55;;;4.51;82.67
50484;BME280;36409;52.168;20.878;2024-01-25T12:47:08;99941.44;;;4.45;82.56
50484;BME280;36409;52.168;20.878;2024-01-25T12:49:37;99942.28;;;4.40;82.06
50484;BME280;36409;52.168;20.878;2024-01-25T12:52:07;99958.59;;;4.31;82.23
50484;BME280;36409;52.168;20.878;2024-01-25T12:54:37;99968.04;;;4.21;81.83
50484;BME280;36409;52.168;20.878;2024-01-25T12:57:07;99980.03;;;4.10;81.71
50484;BME280;36409;52.168;20.878;2024-01-25T12:59:37;99986.81;;;3.95;81.41
50484;BME280;36409;52.168;20.878;2024-01-25T13:02:07;99987.61;;;3.85;81.75
50484;BME280;36409;52.168;20.878;2024-01-25T13:04:39;99989.25;;;3.74;82.10
50484;BME280;36409;52.168;20.878;2024-01-25T13:07:09;99983.98;;;3.63;81.37
50484;BME280;36409;52.168;20.878;2024-01-25T13:09:38;99996.81;;;3.55;81.09
50484;BME280;36409;52.168;20.878;2024-01-25T13:12:09;99989.89;;;3.48;81.85
50484;BME280;36409;52.168;20.878;2024-01-25T13:14:41;99993.28;;;3.44;81.69
50484;BME280;36409;52.168;20.878;2024-01-25T13:17:10;100000.98;;;3.37;81.15
50484;BME280;36409;52.168;20.878;2024-01-25T13:19:39;99996.59;;;3.29;81.75
50484;BME280;36409;52.168;20.878;2024-01-25T13:22:07;100004.28;;;3.22;81.20
50484;BME280;36409;52.168;20.878;2024-01-25T13:24:36;100011.13;;;3.19;81.68
50484;BME280;36409;52.168;20.878;2024-01-25T13:27:06;100011.94;;;3.16;81.90
50484;BME280;36409;52.168;20.878;2024-01-25T13:29:35;100022.25;;;3.15;82.19
50484;BME280;36409;52.168;20.878;2024-01-25T13:32:05;100020.52;;;3.14;82.10
50484;BME280;36409;52.168;20.878;2024-01-25T13:34:38;100030.84;;;3.14;81.58
50484;BME280;36409;52.168;20.878;2024-01-25T13:37:07;100018.78;;;3.11;82.19